createdAt,value
2023-04-05T00:01:21.399Z,84.60
2023-04-05T00:03:49.821Z,84.80
2023-04-05T00:06:18.997Z,84.40
2023-04-05T00:08:50.104Z,84.90
2023-04-05T00:11:19.166Z,84.90
2023-04-05T00:13:47.460Z,85.30
2023-04-05T00:16:16.638Z,85.60
2023-04-05T00:18:49.930Z,85.40
2023-04-05T00:21:21.831Z,85.40
2023-04-05T00:23:53.315Z,85.50
2023-04-05T00:26:22.588Z,85.60
2023-04-05T00:28:55.744Z,85.50
2023-04-05T00:31:24.614Z,85.20
2023-04-05T00:33:53.516Z,85.40
2023-04-05T00:36:22.337Z,85.30
2023-04-05T00:38:52.055Z,85.20
2023-04-05T00:41:20.511Z,85.50
2023-04-05T00:43:48.949Z,85.40
2023-04-05T00:46:18.153Z,85.20
2023-04-05T00:48:47.162Z,85.70
2023-04-05T00:51:15.589Z,85.60
2023-04-05T00:53:44.973Z,85.60
2023-04-05T00:56:16.855Z,85.50
2023-04-05T00:58:45.202Z,86.20
2023-04-05T01:01:18.612Z,85.70
2023-04-05T01:03:54.829Z,86.40
2023-04-05T01:06:41.689Z,86.30
2023-04-05T01:09:21.507Z,86.30
2023-04-05T01:11:54.282Z,86.30
2023-04-05T01:14:22.671Z,86.20
2023-04-05T01:16:51.417Z,85.90
2023-04-05T01:19:20.174Z,85.90
2023-04-05T01:22:18.480Z,85.90
2023-04-05T01:25:06.678Z,86.50
2023-04-05T01:28:11.751Z,86.60
2023-04-05T01:30:45.865Z,86.40
2023-04-05T01:33:20.562Z,86.40
2023-04-05T01:35:57.051Z,86.40
2023-04-05T01:38:28.704Z,86.40
2023-04-05T01:40:57.696Z,86.60
2023-04-05T01:43:26.075Z,86.40
2023-04-05T01:45:57.445Z,86.20
2023-04-05T01:48:26.191Z,86.00
2023-04-05T01:50:54.735Z,86.70
2023-04-05T01:53:23.120Z,86.50
2023-04-05T01:55:51.957Z,86.50
2023-04-05T01:58:20.782Z,86.90
2023-04-05T02:00:49.468Z,87.00
2023-04-05T02:03:19.494Z,86.60
2023-04-05T02:05:48.056Z,87.00
2023-04-05T02:08:20.064Z,87.00
2023-04-05T02:10:50.705Z,87.30
2023-04-05T02:13:19.210Z,87.20
2023-04-05T02:15:50.459Z,86.90
2023-04-05T02:18:22.260Z,87.40
2023-04-05T02:20:52.146Z,87.30
2023-04-05T02:23:21.899Z,87.50
2023-04-05T02:25:50.499Z,87.50
2023-04-05T02:28:18.961Z,87.20
2023-04-05T02:30:49.297Z,86.80
2023-04-05T02:33:22.607Z,87.60
2023-04-05T02:35:52.568Z,88.50
2023-04-05T02:38:21.180Z,87.80
2023-04-05T02:40:51.582Z,87.30
2023-04-05T02:43:20.185Z,88.00
2023-04-05T02:45:48.757Z,87.40
2023-04-05T02:48:22.301Z,87.30
2023-04-05T02:50:52.499Z,87.70
2023-04-05T02:53:24.189Z,88.00
2023-04-05T02:56:00.198Z,87.80
2023-04-05T02:58:33.624Z,87.80
2023-04-05T03:01:07.577Z,88.10
2023-04-05T03:03:42.789Z,88.00
2023-04-05T03:06:21.030Z,87.80
2023-04-05T03:08:51.490Z,88.20
2023-04-05T03:11:34.164Z,87.90
2023-04-05T03:14:06.215Z,88.20
2023-04-05T03:16:40.621Z,87.80
2023-04-05T03:19:27.204Z,88.20
2023-04-05T03:22:02.620Z,88.20
2023-04-05T03:24:35.819Z,87.80
2023-04-05T03:27:07.220Z,88.80
2023-04-05T03:29:44.021Z,88.20
2023-04-05T03:32:17.292Z,88.20
2023-04-05T03:34:54.474Z,88.00
2023-04-05T03:37:24.276Z,88.50
2023-04-05T03:40:01.682Z,88.20
2023-04-05T03:42:30.194Z,88.20
2023-04-05T03:45:00.003Z,88.50
2023-04-05T03:47:34.028Z,88.50
2023-04-05T03:50:11.461Z,88.90
2023-04-05T03:52:39.969Z,89.00
2023-04-05T03:55:16.071Z,88.60
2023-04-05T03:57:49.816Z,88.80
2023-04-05T04:00:24.921Z,88.80
2023-04-05T04:03:28.950Z,88.60
2023-04-05T04:05:59.289Z,88.40
2023-04-05T04:08:29.778Z,88.60
2023-04-05T04:11:01.019Z,88.70
2023-04-05T04:13:36.113Z,88.90
2023-04-05T04:16:31.131Z,88.50
2023-04-05T04:19:22.495Z,88.40
2023-04-05T04:22:10.240Z,88.60
2023-04-05T04:24:57.646Z,89.00
2023-04-05T04:27:37.246Z,89.50
2023-04-05T04:30:38.053Z,89.00
2023-04-05T04:33:17.505Z,88.50
2023-04-05T04:35:56.569Z,88.60
2023-04-05T04:38:34.844Z,88.60
2023-04-05T04:41:22.867Z,88.60
2023-04-05T04:44:15.266Z,88.90
2023-04-05T04:47:21.793Z,89.00
2023-04-05T04:50:12.563Z,89.00
2023-04-05T04:52:41.555Z,89.30
2023-04-05T04:55:13.795Z,89.30
2023-04-05T04:57:42.837Z,89.70
2023-04-05T05:00:15.851Z,89.30
2023-04-05T05:02:45.164Z,89.60
2023-04-05T05:05:16.658Z,89.10
2023-04-05T05:07:45.456Z,89.10
2023-04-05T05:10:16.398Z,89.10
2023-04-05T05:12:45.117Z,89.50
2023-04-05T05:15:17.061Z,89.20
2023-04-05T05:17:53.196Z,89.10
2023-04-05T05:20:22.650Z,89.30
2023-04-05T05:22:55.827Z,89.30
2023-04-05T05:25:30.026Z,89.80
2023-04-05T05:27:59.536Z,90.20
2023-04-05T05:30:30.009Z,89.80
2023-04-05T05:33:02.595Z,89.90
2023-04-05T05:35:31.240Z,90.00
2023-04-05T05:38:00.111Z,89.70
2023-04-05T05:40:30.107Z,89.70
2023-04-05T05:43:01.357Z,89.80
2023-04-05T05:45:30.675Z,90.00
2023-04-05T05:47:59.354Z,90.00
2023-04-05T05:50:36.844Z,89.60
2023-04-05T05:53:05.320Z,90.10
2023-04-05T05:55:35.568Z,89.50
2023-04-05T05:58:04.212Z,89.80
2023-04-05T06:00:36.194Z,89.30
2023-04-05T06:03:07.132Z,89.40
2023-04-05T06:05:38.950Z,90.00
2023-04-05T06:08:12.400Z,89.80
2023-04-05T06:10:42.550Z,90.10
2023-04-05T06:13:11.563Z,90.00
2023-04-05T06:15:43.065Z,90.20
2023-04-05T06:18:12.341Z,89.80
2023-04-05T06:20:43.319Z,90.10
2023-04-05T06:23:12.015Z,90.00
2023-04-05T06:25:42.188Z,90.00
2023-04-05T06:28:10.775Z,90.20
2023-04-05T06:30:39.807Z,90.20
2023-04-05T06:33:13.311Z,90.20
2023-04-05T06:35:51.447Z,90.30
2023-04-05T06:38:20.321Z,90.90
2023-04-05T06:40:53.382Z,90.40
2023-04-05T06:43:31.248Z,90.40
2023-04-05T06:46:02.756Z,90.60
2023-04-05T06:48:31.367Z,90.40
2023-04-05T06:51:02.972Z,90.40
2023-04-05T06:53:32.513Z,90.60
2023-04-05T06:56:03.225Z,90.60
2023-04-05T06:58:34.977Z,90.70
2023-04-05T07:01:04.100Z,90.80
2023-04-05T07:03:34.032Z,90.70
2023-04-05T07:06:03.046Z,90.60
2023-04-05T07:08:34.022Z,90.50
2023-04-05T07:11:03.833Z,90.40
2023-04-05T07:13:33.442Z,90.50
2023-04-05T07:16:03.524Z,90.60
2023-04-05T07:18:35.339Z,90.80
2023-04-05T07:21:04.730Z,90.80
2023-04-05T07:23:33.371Z,90.60
2023-04-05T07:26:05.913Z,90.80
2023-04-05T07:28:36.245Z,90.90
2023-04-05T07:31:08.675Z,90.90
2023-04-05T07:33:37.283Z,90.90
2023-04-05T07:36:10.461Z,90.60
2023-04-05T07:38:39.233Z,90.80
2023-04-05T07:41:09.198Z,91.00
2023-04-05T07:43:37.768Z,90.40
2023-04-05T07:46:06.373Z,90.60
2023-04-05T07:48:38.071Z,90.50
2023-04-05T07:51:11.442Z,90.40
2023-04-05T07:53:45.602Z,90.30
2023-04-05T07:56:18.385Z,90.30
2023-04-05T07:58:51.792Z,90.40
2023-04-05T08:01:29.258Z,90.40
2023-04-05T08:03:59.204Z,90.10
2023-04-05T08:06:31.008Z,90.10
2023-04-05T08:08:59.506Z,90.00
2023-04-05T08:11:29.230Z,89.40
2023-04-05T08:13:57.683Z,89.30
2023-04-05T08:16:26.166Z,89.50
2023-04-05T08:18:54.996Z,88.90
2023-04-05T08:21:24.024Z,89.60
2023-04-05T08:24:00.461Z,88.50
2023-04-05T08:26:30.608Z,88.30
2023-04-05T08:28:58.993Z,87.70
2023-04-05T08:31:27.752Z,87.70
2023-04-05T08:33:56.244Z,88.40
2023-04-05T08:36:24.644Z,87.60
2023-04-05T08:38:53.005Z,86.90
2023-04-05T08:41:24.797Z,87.20
2023-04-05T08:43:59.049Z,86.90
2023-04-05T08:46:28.473Z,86.90
2023-04-05T08:48:58.240Z,86.90
2023-04-05T08:51:27.799Z,86.70
2023-04-05T08:53:56.700Z,86.50
2023-04-05T08:56:29.142Z,86.50
2023-04-05T08:59:04.074Z,86.00
2023-04-05T09:01:35.002Z,86.30
2023-04-05T09:04:08.410Z,86.60
2023-04-05T09:06:37.628Z,85.40
2023-04-05T09:09:09.367Z,84.90
2023-04-05T09:11:38.079Z,84.10
2023-04-05T09:14:08.886Z,84.40
2023-04-05T09:16:40.629Z,83.80
2023-04-05T09:19:10.719Z,83.70
2023-04-05T09:22:04.739Z,83.60
2023-04-05T09:25:03.665Z,82.90
2023-04-05T09:27:32.060Z,82.90
2023-04-05T09:30:03.129Z,83.30
2023-04-05T09:32:31.631Z,83.30
2023-04-05T09:35:04.459Z,83.20
2023-04-05T09:37:35.496Z,82.60
2023-04-05T09:40:06.972Z,82.80
2023-04-05T09:42:46.046Z,83.00
2023-04-05T09:45:16.306Z,82.90
2023-04-05T09:48:11.200Z,82.60
2023-04-05T09:50:40.150Z,82.50
2023-04-05T09:53:15.988Z,82.60
2023-04-05T09:55:44.932Z,82.90
2023-04-05T09:58:14.176Z,83.10
2023-04-05T10:00:57.956Z,82.60
2023-04-05T10:03:31.952Z,81.90
2023-04-05T10:06:01.152Z,82.50
2023-04-05T10:08:29.732Z,81.70
2023-04-05T10:11:00.819Z,81.70
2023-04-05T10:13:29.831Z,81.70
2023-04-05T10:16:03.433Z,81.70
2023-04-05T10:18:41.843Z,80.30
2023-04-05T10:21:14.930Z,80.40
2023-04-05T10:23:47.855Z,80.20
2023-04-05T10:26:29.135Z,80.10
2023-04-05T10:29:10.528Z,79.10
2023-04-05T10:31:52.788Z,79.60
2023-04-05T10:34:34.497Z,79.70
2023-04-05T10:37:04.032Z,79.40
2023-04-05T10:39:41.741Z,79.40
2023-04-05T10:42:21.190Z,78.40
2023-04-05T10:45:01.245Z,77.90
2023-04-05T10:47:33.761Z,78.10
2023-04-05T10:50:05.776Z,78.20
2023-04-05T10:52:35.705Z,78.60
2023-04-05T10:55:05.598Z,79.70
2023-04-05T10:57:35.177Z,79.30
2023-04-05T11:00:04.367Z,79.50
2023-04-05T11:02:34.788Z,79.90
2023-04-05T11:05:05.936Z,79.50
2023-04-05T11:07:45.273Z,79.70
2023-04-05T11:10:20.056Z,78.90
2023-04-05T11:13:14.414Z,78.80
2023-04-05T11:15:43.046Z,78.70
2023-04-05T11:18:23.044Z,78.40
2023-04-05T11:20:56.129Z,78.50
2023-04-05T11:23:27.074Z,78.90
2023-04-05T11:25:59.779Z,79.30
2023-04-05T11:28:32.332Z,79.20
2023-04-05T11:31:15.599Z,79.50
2023-04-05T11:34:10.341Z,79.10
2023-04-05T11:36:42.253Z,78.80
2023-04-05T11:39:27.641Z,78.70
2023-04-05T11:42:02.233Z,79.20
2023-04-05T11:44:34.711Z,78.50
2023-04-05T11:47:06.287Z,78.60
2023-04-05T11:49:36.416Z,77.80
2023-04-05T11:52:16.594Z,77.10
2023-04-05T11:54:49.730Z,77.10
2023-04-05T11:57:23.618Z,78.00
2023-04-05T11:59:53.255Z,76.90
2023-04-05T12:02:23.038Z,76.90
2023-04-05T12:04:58.276Z,76.80
2023-04-05T12:07:29.246Z,76.60
2023-04-05T12:10:08.655Z,76.80
2023-04-05T12:12:39.763Z,76.70
2023-04-05T12:15:11.027Z,76.80
2023-04-05T12:17:47.213Z,76.60
2023-04-05T12:20:20.579Z,76.10
2023-04-05T12:22:51.866Z,75.90
2023-04-05T12:25:21.700Z,75.80
2023-04-05T12:27:50.285Z,75.80
2023-04-05T12:30:20.834Z,75.80
2023-04-05T12:32:52.518Z,74.90
2023-04-05T12:35:27.168Z,74.80
2023-04-05T12:38:00.036Z,75.00
2023-04-05T12:40:30.983Z,74.90
2023-04-05T12:43:04.500Z,74.70
2023-04-05T12:45:40.623Z,74.30
2023-04-05T12:48:12.049Z,75.20
2023-04-05T12:50:46.702Z,74.90
2023-04-05T12:53:21.490Z,74.30
2023-04-05T12:55:52.133Z,74.30
2023-04-05T12:58:21.727Z,74.10
2023-04-05T13:00:50.347Z,74.40
2023-04-05T13:03:21.456Z,74.10
2023-04-05T13:05:51.512Z,73.70
2023-04-05T13:08:20.547Z,73.80
2023-04-05T13:10:50.582Z,73.90
2023-04-05T13:13:20.637Z,73.60
2023-04-05T13:15:51.446Z,74.60
2023-04-05T13:18:20.742Z,73.90
2023-04-05T13:20:50.733Z,73.90
2023-04-05T13:23:19.321Z,73.30
2023-04-05T13:25:47.802Z,73.40
2023-04-05T13:28:16.309Z,73.00
2023-04-05T13:30:44.890Z,72.80
2023-04-05T13:33:13.461Z,72.50
2023-04-05T13:35:42.296Z,72.70
2023-04-05T13:38:12.442Z,72.80
2023-04-05T13:40:41.322Z,72.00
2023-04-05T13:43:10.008Z,72.10
2023-04-05T13:45:39.451Z,71.60
2023-04-05T13:48:08.247Z,71.80
2023-04-05T13:50:36.933Z,71.50
2023-04-05T13:53:05.495Z,71.80
2023-04-05T13:55:35.585Z,71.70
2023-04-05T13:58:04.109Z,71.00
2023-04-05T14:00:32.589Z,70.80
2023-04-05T14:03:01.116Z,70.20
2023-04-05T14:05:29.592Z,70.20
2023-04-05T14:07:58.328Z,69.60
2023-04-05T14:10:26.719Z,69.70
2023-04-05T14:12:56.582Z,69.80
2023-04-05T14:15:24.966Z,69.50
2023-04-05T14:17:53.444Z,69.70
2023-04-05T14:20:21.866Z,69.40
2023-04-05T14:22:50.553Z,69.40
2023-04-05T14:25:19.137Z,69.10
2023-04-05T14:27:47.920Z,68.90
2023-04-05T14:30:18.114Z,68.70
2023-04-05T14:32:47.104Z,68.90
2023-04-05T14:35:15.556Z,68.70
2023-04-05T14:37:43.993Z,69.20
2023-04-05T14:40:13.305Z,69.50
2023-04-05T14:42:49.260Z,67.70
2023-04-05T14:45:20.496Z,68.10
2023-04-05T14:47:49.081Z,67.10
2023-04-05T14:50:17.635Z,67.10
2023-04-05T14:52:46.629Z,66.60
2023-04-05T14:55:16.601Z,66.90
2023-04-05T14:57:45.279Z,67.30
2023-04-05T15:00:15.544Z,67.30
2023-04-05T15:02:47.158Z,66.60
2023-04-05T15:05:15.821Z,66.10
2023-04-05T15:07:44.252Z,66.60
2023-04-05T15:10:13.096Z,66.50
2023-04-05T15:12:41.592Z,66.60
2023-04-05T15:15:10.630Z,66.00
2023-04-05T15:17:39.182Z,66.00
2023-04-05T15:20:10.565Z,66.10
2023-04-05T15:22:40.944Z,65.60
2023-04-05T15:25:11.305Z,66.20
2023-04-05T15:27:39.737Z,66.30
2023-04-05T15:30:09.763Z,65.90
2023-04-05T15:32:38.429Z,65.30
2023-04-05T15:35:09.246Z,65.00
2023-04-05T15:37:37.568Z,64.90
2023-04-05T15:40:07.253Z,65.10
2023-04-05T15:42:35.914Z,65.50
2023-04-05T15:45:04.573Z,65.50
2023-04-05T15:47:32.915Z,65.90
2023-04-05T15:50:01.318Z,64.80
2023-04-05T15:52:31.049Z,64.20
2023-04-05T15:54:59.354Z,63.80
2023-04-05T15:57:27.692Z,63.80
2023-04-05T15:59:56.061Z,63.50
2023-04-05T16:02:25.357Z,63.50
2023-04-05T16:04:53.795Z,63.70
2023-04-05T16:07:22.109Z,63.50
2023-04-05T16:09:51.801Z,63.40
2023-04-05T16:12:20.239Z,62.60
2023-04-05T16:14:48.565Z,63.10
2023-04-05T16:17:16.946Z,62.90
2023-04-05T16:19:45.264Z,63.00
2023-04-05T16:22:13.749Z,63.60
2023-04-05T16:24:42.105Z,63.20
2023-04-05T16:27:12.321Z,63.00
2023-04-05T16:29:40.660Z,62.00
2023-04-05T16:32:09.730Z,62.90
2023-04-05T16:34:38.036Z,63.00
2023-04-05T16:37:06.427Z,63.20
2023-04-05T16:39:34.714Z,62.90
2023-04-05T16:42:03.114Z,62.90
2023-04-05T16:44:32.782Z,62.60
2023-04-05T16:47:01.111Z,62.30
2023-04-05T16:49:29.633Z,62.40
2023-04-05T16:51:58.010Z,62.60
2023-04-05T16:54:26.539Z,62.40
2023-04-05T16:56:54.843Z,62.40
2023-04-05T16:59:23.192Z,62.10
2023-04-05T17:01:53.282Z,62.60
2023-04-05T17:04:21.742Z,61.70
2023-04-05T17:06:51.584Z,62.10
2023-04-05T17:09:21.662Z,62.10
2023-04-05T17:11:50.059Z,62.50
2023-04-05T17:14:18.478Z,62.10
2023-04-05T17:16:47.975Z,62.10
2023-04-05T17:19:18.162Z,61.30
2023-04-05T17:21:48.826Z,60.90
2023-04-05T17:24:18.473Z,61.50
2023-04-05T17:26:47.988Z,61.60
2023-04-05T17:29:17.641Z,61.60
2023-04-05T17:31:46.520Z,61.90
2023-04-05T17:34:16.711Z,62.60
2023-04-05T17:36:46.851Z,63.00
2023-04-05T17:39:15.392Z,63.00
2023-04-05T17:41:45.713Z,63.50
2023-04-05T17:44:14.305Z,63.40
2023-04-05T17:46:51.045Z,63.70
2023-04-05T17:49:22.538Z,63.90
2023-04-05T17:51:52.203Z,65.00
2023-04-05T17:54:20.607Z,66.20
2023-04-05T17:56:48.861Z,66.80
2023-04-05T17:59:36.494Z,67.40
2023-04-05T18:02:04.887Z,66.80
2023-04-05T18:04:33.356Z,67.10
2023-04-05T18:07:03.122Z,67.50
2023-04-05T18:09:33.173Z,66.60
2023-04-05T18:12:02.373Z,66.10
2023-04-05T18:15:21.756Z,66.60
2023-04-05T18:17:50.206Z,67.60
2023-04-05T18:20:18.922Z,67.90
2023-04-05T18:22:48.591Z,68.60
2023-04-05T18:25:18.977Z,68.80
2023-04-05T18:27:48.546Z,69.00
2023-04-05T18:30:17.128Z,68.80
2023-04-05T18:32:45.823Z,69.30
2023-04-05T18:35:14.334Z,69.90
2023-04-05T18:37:42.639Z,70.60
2023-04-05T18:40:13.230Z,69.70
2023-04-05T18:42:41.594Z,70.10
2023-04-05T18:45:11.202Z,70.00
2023-04-05T18:47:39.608Z,70.50
2023-04-05T18:50:10.049Z,70.30
2023-04-05T18:52:38.694Z,71.10
2023-04-05T18:55:08.334Z,71.70
2023-04-05T18:57:38.000Z,71.30
2023-04-05T19:00:08.246Z,71.20
2023-04-05T19:02:36.681Z,71.70
2023-04-05T19:05:05.742Z,71.50
2023-04-05T19:07:34.154Z,71.70
2023-04-05T19:10:02.497Z,71.20
2023-04-05T19:12:30.848Z,71.30
2023-04-05T19:15:00.570Z,71.80
2023-04-05T19:17:29.227Z,72.30
2023-04-05T19:19:57.569Z,72.90
2023-04-05T19:22:26.005Z,72.30
2023-04-05T19:24:54.715Z,72.40
2023-04-05T19:27:23.148Z,72.30
2023-04-05T19:29:51.558Z,72.60
2023-04-05T19:32:22.830Z,73.00
2023-04-05T19:34:51.401Z,73.00
2023-04-05T19:37:19.880Z,73.10
2023-04-05T19:39:48.326Z,73.10
2023-04-05T19:42:16.701Z,73.20
2023-04-05T19:44:51.626Z,73.40
2023-04-05T19:47:22.775Z,74.20
2023-04-05T19:49:53.723Z,73.70
2023-04-05T19:52:42.459Z,73.90
2023-04-05T19:55:29.872Z,74.60
2023-04-05T19:58:00.144Z,74.50
2023-04-05T20:00:37.661Z,74.20
2023-04-05T20:03:29.664Z,74.70
2023-04-05T20:06:12.236Z,75.00
2023-04-05T20:08:42.800Z,75.50
2023-04-05T20:11:13.701Z,74.80
2023-04-05T20:13:49.007Z,75.00
2023-04-05T20:16:18.743Z,75.10
2023-04-05T20:18:49.776Z,75.20
2023-04-05T20:21:19.246Z,75.30
2023-04-05T20:23:48.886Z,75.50
2023-04-05T20:26:18.875Z,75.30
2023-04-05T20:28:54.602Z,75.60
2023-04-05T20:31:25.698Z,75.80
2023-04-05T20:34:00.646Z,75.80
2023-04-05T20:36:34.515Z,76.00
2023-04-05T20:39:04.527Z,76.20
2023-04-05T20:41:33.181Z,76.10
2023-04-05T20:44:02.092Z,76.00
2023-04-05T20:46:30.650Z,76.40
2023-04-05T20:49:00.506Z,76.10
2023-04-05T20:51:28.913Z,76.50
2023-04-05T20:53:57.307Z,76.30
2023-04-05T20:56:25.800Z,77.10
2023-04-05T20:58:54.943Z,76.60
2023-04-05T21:01:23.584Z,76.40
2023-04-05T21:03:53.164Z,76.90
2023-04-05T21:06:22.974Z,76.90
2023-04-05T21:08:51.326Z,77.10
2023-04-05T21:11:19.692Z,77.00
2023-04-05T21:13:48.091Z,76.90
2023-04-05T21:16:16.656Z,77.30
2023-04-05T21:18:45.007Z,77.20
2023-04-05T21:21:13.422Z,78.40
2023-04-05T21:23:44.234Z,77.70
2023-04-05T21:26:34.373Z,78.20
2023-04-05T21:29:02.744Z,77.20
2023-04-05T21:31:31.251Z,77.10
2023-04-05T21:33:59.706Z,76.10
2023-04-05T21:36:28.178Z,77.30
2023-04-05T21:38:57.917Z,76.60
2023-04-05T21:41:26.385Z,77.40
2023-04-05T21:43:54.754Z,77.10
2023-04-05T21:46:23.234Z,76.90
2023-04-05T21:48:51.640Z,77.80
2023-04-05T21:51:20.012Z,77.60
2023-04-05T21:53:48.426Z,77.10
2023-04-05T21:56:19.095Z,78.30
2023-04-05T21:58:47.918Z,77.80
2023-04-05T22:01:16.478Z,77.90
2023-04-05T22:03:45.036Z,78.20
2023-04-05T22:06:13.426Z,78.90
2023-04-05T22:08:41.842Z,78.20
2023-04-05T22:11:10.365Z,77.20
2023-04-05T22:13:40.226Z,77.90
2023-04-05T22:16:10.361Z,77.90
2023-04-05T22:18:38.863Z,79.10
2023-04-05T22:21:07.492Z,78.40
2023-04-05T22:23:36.081Z,78.10
2023-04-05T22:26:07.629Z,78.70
2023-04-05T22:28:36.070Z,78.70
2023-04-05T22:31:06.039Z,78.70
2023-04-05T22:33:34.462Z,79.40
2023-04-05T22:36:03.393Z,78.80
2023-04-05T22:38:31.888Z,79.30
2023-04-05T22:41:00.283Z,79.20
2023-04-05T22:43:30.688Z,79.50
2023-04-05T22:45:59.792Z,80.00
2023-04-05T22:48:30.095Z,80.20
2023-04-05T22:50:58.530Z,80.20
2023-04-05T22:53:26.863Z,79.60
2023-04-05T22:55:55.246Z,80.00
2023-04-05T22:58:23.668Z,79.20
2023-04-05T23:00:52.137Z,80.20
2023-04-05T23:03:20.965Z,80.60
2023-04-05T23:05:52.250Z,81.00
2023-04-05T23:08:20.727Z,79.40
2023-04-05T23:10:49.392Z,79.40
2023-04-05T23:13:17.867Z,79.50
2023-04-05T23:15:46.323Z,78.90
2023-04-05T23:18:17.013Z,79.90
2023-04-05T23:20:45.514Z,79.90
2023-04-05T23:23:15.558Z,78.60
2023-04-05T23:25:44.006Z,80.00
2023-04-05T23:28:12.438Z,80.40
2023-04-05T23:30:40.869Z,80.70
2023-04-05T23:33:13.242Z,80.80
2023-04-05T23:35:42.289Z,80.20
2023-04-05T23:38:10.677Z,80.80
2023-04-05T23:40:40.866Z,81.20
2023-04-05T23:43:09.274Z,80.70
2023-04-05T23:45:37.594Z,80.10
2023-04-05T23:48:06.509Z,80.20
2023-04-05T23:50:35.080Z,81.20
2023-04-05T23:53:03.870Z,79.90
2023-04-05T23:55:32.846Z,80.50
2023-04-05T23:58:02.763Z,80.40
